Aeropuerto de Asturias

latitud = 43° 34' 01''N | longitud = 006° 02' 39''W
127 metros sobre el nivel del mar | datos mensuales

Fecha, hora, temperatura, viento dirección y velocidad, humedad y presión.

  • 23-04-2018 10:00:00 | 12.30°C | Sudeste |6.00 km/h | 97.00% | 1006.60 hPa
  • 23-04-2018 09:00:00 | 12.00°C | Sudeste |6.00 km/h | 98.00% | 1006.30 hPa
  • 23-04-2018 08:00:00 | 11.70°C | Sudeste |2.00 km/h | 98.00% | 1005.70 hPa
  • 23-04-2018 07:00:00 | 11.60°C | Sudeste |2.00 km/h | 98.00% | 1005.20 hPa
  • 23-04-2018 06:00:00 | 11.60°C | Norte |3.00 km/h | 98.00% | 1004.90 hPa
  • 23-04-2018 05:00:00 | 11.70°C | Calma |0.00 km/h | 97.00% | 1005.00 hPa
  • 23-04-2018 04:00:00 | 11.70°C | Noroeste |4.00 km/h | 97.00% | 1004.80 hPa
  • 23-04-2018 03:00:00 | 11.90°C | Oeste |3.00 km/h | 98.00% | 1004.70 hPa
  • 23-04-2018 02:00:00 | 12.00°C | Calma |0.00 km/h | 98.00% | 1004.70 hPa
  • 23-04-2018 01:00:00 | 11.80°C | Norte |3.00 km/h | 97.00% | 1004.80 hPa
  • 23-04-2018 00:00:00 | 12.00°C | Oeste |3.00 km/h | 97.00% | 1005.30 hPa
  • 22-04-2018 23:00:00 | 12.20°C | Nordeste |3.00 km/h | 97.00% | 1004.70 hPa
  • 22-04-2018 22:00:00 | 12.20°C | Noroeste |10.00 km/h | 97.00% | 1004.10 hPa
  • 22-04-2018 21:00:00 | 12.50°C | Noroeste |7.00 km/h | 96.00% | 1003.30 hPa
  • 22-04-2018 20:00:00 | 12.80°C | Noroeste |10.00 km/h | 95.00% | 1002.80 hPa
  • 22-04-2018 19:00:00 | 13.10°C | Noroeste |8.00 km/h | 93.00% | 1002.20 hPa
  • 22-04-2018 18:00:00 | 13.60°C | Noroeste |8.00 km/h | 93.00% | 1001.80 hPa
  • 22-04-2018 17:00:00 | 13.80°C | Noroeste |10.00 km/h | 93.00% | 1001.80 hPa
  • 22-04-2018 16:00:00 | 13.80°C | Norte |3.00 km/h | 93.00% | 1001.50 hPa
  • 22-04-2018 15:00:00 | 14.40°C | Norte |7.00 km/h | 91.00% | 1001.60 hPa
  • 22-04-2018 14:00:00 | 14.10°C | Noroeste |7.00 km/h | 93.00% | 1001.50 hPa
  • 22-04-2018 13:00:00 | 14.80°C | Noroeste |12.00 km/h | 91.00% | 1001.50 hPa
  • 22-04-2018 12:00:00 | 18.20°C | Sudoeste |3.00 km/h | 70.00% | 1001.30 hPa
  • 22-04-2018 11:00:00 | 16.30°C | Calma |0.00 km/h | 75.00% | 1001.40 hPa